sensor_id;sensor_type;location;lat;lon;timestamp;pressure;altitude;pressure_sealevel;temperature;humidity
83424;BME280;73355;49.044;8.686;2023-10-19T00:00:40;97994.06;;;23.87;42.10
83424;BME280;73355;49.044;8.686;2023-10-19T00:03:10;97992.78;;;23.88;42.10
83424;BME280;73355;49.044;8.686;2023-10-19T00:05:37;97979.63;;;23.89;41.98
83424;BME280;73355;49.044;8.686;2023-10-19T00:08:04;97984.44;;;23.88;42.00
83424;BME280;73355;49.044;8.686;2023-10-19T00:10:53;97990.00;;;23.88;42.18
83424;BME280;73355;49.044;8.686;2023-10-19T00:13:30;97987.75;;;23.87;41.86
83424;BME280;73355;49.044;8.686;2023-10-19T00:15:55;97987.22;;;23.88;42.31
83424;BME280;73355;49.044;8.686;2023-10-19T00:18:23;97997.06;;;23.89;41.90
83424;BME280;73355;49.044;8.686;2023-10-19T00:20:54;97990.00;;;23.88;41.94
83424;BME280;73355;49.044;8.686;2023-10-19T00:23:36;97982.94;;;23.87;42.24
83424;BME280;73355;49.044;8.686;2023-10-19T00:26:03;97978.88;;;23.88;42.13
83424;BME280;73355;49.044;8.686;2023-10-19T00:28:42;97981.66;;;23.88;42.08
83424;BME280;73355;49.044;8.686;2023-10-19T00:31:10;97985.19;;;23.89;41.97
83424;BME280;73355;49.044;8.686;2023-10-19T00:33:37;97991.50;;;23.89;42.09
83424;BME280;73355;49.044;8.686;2023-10-19T00:36:07;97985.94;;;23.89;42.08
83424;BME280;73355;49.044;8.686;2023-10-19T00:38:36;97985.94;;;23.89;41.99
83424;BME280;73355;49.044;8.686;2023-10-19T00:41:02;97985.94;;;23.89;42.06
83424;BME280;73355;49.044;8.686;2023-10-19T00:43:41;97980.38;;;23.89;41.81
83424;BME280;73355;49.044;8.686;2023-10-19T00:46:14;97975.56;;;23.90;42.24
83424;BME280;73355;49.044;8.686;2023-10-19T00:48:45;97967.78;;;23.88;41.86
83424;BME280;73355;49.044;8.686;2023-10-19T00:51:13;97965.00;;;23.88;42.17
83424;BME280;73355;49.044;8.686;2023-10-19T00:53:57;97965.00;;;23.88;42.15
83424;BME280;73355;49.044;8.686;2023-10-19T00:56:24;97967.78;;;23.88;41.94
83424;BME280;73355;49.044;8.686;2023-10-19T00:58:53;97955.91;;;23.88;41.99
83424;BME280;73355;49.044;8.686;2023-10-19T01:01:23;97965.00;;;23.88;41.91
83424;BME280;73355;49.044;8.686;2023-10-19T01:03:50;97951.09;;;23.88;42.04
83424;BME280;73355;49.044;8.686;2023-10-19T01:06:17;97946.28;;;23.89;41.98
83424;BME280;73355;49.044;8.686;2023-10-19T01:08:44;97947.56;;;23.88;41.90
83424;BME280;73355;49.044;8.686;2023-10-19T01:11:10;97939.22;;;23.88;41.63
83424;BME280;73355;49.044;8.686;2023-10-19T01:13:39;97940.50;;;23.87;42.12
83424;BME280;73355;49.044;8.686;2023-10-19T01:16:12;97937.72;;;23.87;42.15
83424;BME280;73355;49.044;8.686;2023-10-19T01:18:40;97943.28;;;23.87;41.94
83424;BME280;73355;49.044;8.686;2023-10-19T01:21:08;97946.81;;;23.87;42.21
83424;BME280;73355;49.044;8.686;2023-10-19T01:23:34;97944.78;;;23.88;41.85
83424;BME280;73355;49.044;8.686;2023-10-19T01:26:00;97941.25;;;23.87;42.21
83424;BME280;73355;49.044;8.686;2023-10-19T01:28:37;97944.59;;;23.86;41.90
83424;BME280;73355;49.044;8.686;2023-10-19T01:31:06;97943.28;;;23.87;42.00
83424;BME280;73355;49.044;8.686;2023-10-19T01:33:32;97919.03;;;23.87;41.67
83424;BME280;73355;49.044;8.686;2023-10-19T01:36:00;97922.56;;;23.88;41.75
83424;BME280;73355;49.044;8.686;2023-10-19T01:38:49;97910.50;;;23.85;42.06
83424;BME280;73355;49.044;8.686;2023-10-19T01:41:18;97913.59;;;23.82;42.10
83424;BME280;73355;49.044;8.686;2023-10-19T01:43:46;97907.28;;;23.81;42.30
83424;BME280;73355;49.044;8.686;2023-10-19T01:46:13;97901.94;;;23.83;42.04
83424;BME280;73355;49.044;8.686;2023-10-19T01:48:46;97904.72;;;23.83;42.20
83424;BME280;73355;49.044;8.686;2023-10-19T01:51:14;97908.25;;;23.84;42.25
83424;BME280;73355;49.044;8.686;2023-10-19T01:53:40;97890.31;;;23.85;42.15
83424;BME280;73355;49.044;8.686;2023-10-19T01:56:13;97897.34;;;23.86;41.93
83424;BME280;73355;49.044;8.686;2023-10-19T01:58:44;97884.75;;;23.85;42.24
83424;BME280;73355;49.044;8.686;2023-10-19T02:01:12;97877.91;;;23.86;41.77
83424;BME280;73355;49.044;8.686;2023-10-19T02:03:41;97874.38;;;23.85;42.01
83424;BME280;73355;49.044;8.686;2023-10-19T02:06:11;97861.94;;;23.86;41.99
83424;BME280;73355;49.044;8.686;2023-10-19T02:08:54;97848.63;;;23.85;42.17
83424;BME280;73355;49.044;8.686;2023-10-19T02:11:23;97847.13;;;23.84;41.92
83424;BME280;73355;49.044;8.686;2023-10-19T02:13:50;97845.84;;;23.85;41.92
83424;BME280;73355;49.044;8.686;2023-10-19T02:16:19;97847.88;;;23.84;41.81
83424;BME280;73355;49.044;8.686;2023-10-19T02:18:49;97827.66;;;23.84;42.03
83424;BME280;73355;49.044;8.686;2023-10-19T02:21:15;97852.16;;;23.85;41.93
83424;BME280;73355;49.044;8.686;2023-10-19T02:23:46;97836.75;;;23.84;42.21
83424;BME280;73355;49.044;8.686;2023-10-19T02:26:15;97830.03;;;23.80;42.09
83424;BME280;73355;49.044;8.686;2023-10-19T02:28:40;97835.03;;;23.81;42.09
83424;BME280;73355;49.044;8.686;2023-10-19T02:31:09;97821.16;;;23.81;42.06
83424;BME280;73355;49.044;8.686;2023-10-19T02:34:00;97821.91;;;23.82;42.29
83424;BME280;73355;49.044;8.686;2023-10-19T02:36:29;97820.63;;;23.83;42.10
83424;BME280;73355;49.044;8.686;2023-10-19T02:39:01;97822.13;;;23.84;41.79
83424;BME280;73355;49.044;8.686;2023-10-19T02:41:33;97816.56;;;23.84;42.15
83424;BME280;73355;49.044;8.686;2023-10-19T02:44:00;97827.66;;;23.84;42.15
83424;BME280;73355;49.044;8.686;2023-10-19T02:46:28;97826.19;;;23.83;42.17
83424;BME280;73355;49.044;8.686;2023-10-19T02:48:53;97830.44;;;23.84;42.13
83424;BME280;73355;49.044;8.686;2023-10-19T02:51:19;97824.16;;;23.83;42.03
83424;BME280;73355;49.044;8.686;2023-10-19T02:53:44;97813.78;;;23.84;42.12
83424;BME280;73355;49.044;8.686;2023-10-19T02:56:11;97818.19;;;23.79;42.06
83424;BME280;73355;49.044;8.686;2023-10-19T02:58:40;97817.63;;;23.81;42.15
83424;BME280;73355;49.044;8.686;2023-10-19T03:01:12;97811.53;;;23.82;42.08
83424;BME280;73355;49.044;8.686;2023-10-19T03:03:38;97820.63;;;23.83;41.98
83424;BME280;73355;49.044;8.686;2023-10-19T03:06:04;97819.88;;;23.82;42.08
83424;BME280;73355;49.044;8.686;2023-10-19T03:08:31;97819.88;;;23.82;42.07
83424;BME280;73355;49.044;8.686;2023-10-19T03:10:56;97818.59;;;23.83;42.07
83424;BME280;73355;49.044;8.686;2023-10-19T03:13:32;97820.63;;;23.83;42.22
83424;BME280;73355;49.044;8.686;2023-10-19T03:15:58;97815.81;;;23.83;42.18
83424;BME280;73355;49.044;8.686;2023-10-19T03:18:26;97818.59;;;23.83;42.08
83424;BME280;73355;49.044;8.686;2023-10-19T03:20:51;97815.81;;;23.83;41.75
83424;BME280;73355;49.044;8.686;2023-10-19T03:23:17;97808.00;;;23.82;42.14
83424;BME280;73355;49.044;8.686;2023-10-19T03:25:42;97804.06;;;23.77;42.31
83424;BME280;73355;49.044;8.686;2023-10-19T03:28:43;97801.28;;;23.77;42.29
83424;BME280;73355;49.044;8.686;2023-10-19T03:31:09;97803.53;;;23.79;42.09
83424;BME280;73355;49.044;8.686;2023-10-19T03:33:42;97814.84;;;23.81;42.28
83424;BME280;73355;49.044;8.686;2023-10-19T03:36:09;97795.41;;;23.81;42.20
83424;BME280;73355;49.044;8.686;2023-10-19T03:38:38;97798.91;;;23.81;42.07
83424;BME280;73355;49.044;8.686;2023-10-19T03:41:06;97794.13;;;23.82;42.25
83424;BME280;73355;49.044;8.686;2023-10-19T03:43:33;97798.38;;;23.83;41.86
83424;BME280;73355;49.044;8.686;2023-10-19T03:45:58;97787.28;;;23.83;42.04
83424;BME280;73355;49.044;8.686;2023-10-19T03:48:24;97776.16;;;23.83;42.07
83424;BME280;73355;49.044;8.686;2023-10-19T03:50:55;97774.13;;;23.83;42.14
83424;BME280;73355;49.044;8.686;2023-10-19T03:53:22;97765.03;;;23.83;41.94
83424;BME280;73355;49.044;8.686;2023-10-19T03:55:47;97763.00;;;23.83;41.77
83424;BME280;73355;49.044;8.686;2023-10-19T03:58:15;97760.25;;;23.83;41.98
83424;BME280;73355;49.044;8.686;2023-10-19T04:00:40;97756.19;;;23.84;42.13
83424;BME280;73355;49.044;8.686;2023-10-19T04:03:06;97749.88;;;23.84;42.03
83424;BME280;73355;49.044;8.686;2023-10-19T04:05:32;97745.81;;;23.85;42.08
83424;BME280;73355;49.044;8.686;2023-10-19T04:08:03;97752.66;;;23.84;42.17
83424;BME280;73355;49.044;8.686;2023-10-19T04:10:38;97761.00;;;23.84;42.07
83424;BME280;73355;49.044;8.686;2023-10-19T04:13:03;97755.97;;;23.82;42.03
83424;BME280;73355;49.044;8.686;2023-10-19T04:15:29;97758.97;;;23.84;42.01
83424;BME280;73355;49.044;8.686;2023-10-19T04:17:54;97749.13;;;23.83;42.02
83424;BME280;73355;49.044;8.686;2023-10-19T04:20:21;97747.97;;;23.79;41.99
83424;BME280;73355;49.044;8.686;2023-10-19T04:23:16;97747.22;;;23.78;41.94
83424;BME280;73355;49.044;8.686;2023-10-19T04:25:41;97745.94;;;23.79;42.11
83424;BME280;73355;49.044;8.686;2023-10-19T04:28:06;97737.03;;;23.81;42.07
83424;BME280;73355;49.044;8.686;2023-10-19T04:30:32;97746.13;;;23.81;42.33
83424;BME280;73355;49.044;8.686;2023-10-19T04:32:58;97738.53;;;23.82;42.06
83424;BME280;73355;49.044;8.686;2023-10-19T04:35:25;97738.53;;;23.82;42.16
83424;BME280;73355;49.044;8.686;2023-10-19T04:37:55;97730.97;;;23.82;41.98
83424;BME280;73355;49.044;8.686;2023-10-19T04:40:22;97735.22;;;23.83;42.08
83424;BME280;73355;49.044;8.686;2023-10-19T04:42:49;97739.28;;;23.82;42.13
83424;BME280;73355;49.044;8.686;2023-10-19T04:45:15;97730.22;;;23.82;42.17
83424;BME280;73355;49.044;8.686;2023-10-19T04:47:40;97742.06;;;23.82;41.87
83424;BME280;73355;49.044;8.686;2023-10-19T04:50:06;97734.47;;;23.83;42.19
83424;BME280;73355;49.044;8.686;2023-10-19T04:52:32;97735.22;;;23.83;42.09
83424;BME280;73355;49.044;8.686;2023-10-19T04:54:58;97736.50;;;23.82;42.01
83424;BME280;73355;49.044;8.686;2023-10-19T04:57:23;97743.56;;;23.83;42.13
83424;BME280;73355;49.044;8.686;2023-10-19T04:59:49;97744.31;;;23.84;41.93
83424;BME280;73355;49.044;8.686;2023-10-19T05:02:15;97741.53;;;23.84;42.13
83424;BME280;73355;49.044;8.686;2023-10-19T05:04:40;97744.31;;;23.84;42.07
83424;BME280;73355;49.044;8.686;2023-10-19T05:07:06;97734.47;;;23.83;42.24
83424;BME280;73355;49.044;8.686;2023-10-19T05:09:31;97738.88;;;23.78;42.33
83424;BME280;73355;49.044;8.686;2023-10-19T05:11:57;97736.13;;;23.78;41.97
83424;BME280;73355;49.044;8.686;2023-10-19T05:14:22;97736.88;;;23.79;42.14
83424;BME280;73355;49.044;8.686;2023-10-19T05:16:48;97733.56;;;23.80;42.21
83424;BME280;73355;49.044;8.686;2023-10-19T05:19:13;97734.28;;;23.81;42.18
83424;BME280;73355;49.044;8.686;2023-10-19T05:21:39;97733.56;;;23.80;42.05
83424;BME280;73355;49.044;8.686;2023-10-19T05:24:04;97732.38;;;23.76;42.13
83424;BME280;73355;49.044;8.686;2023-10-19T05:26:30;97724.78;;;23.76;41.98
83424;BME280;73355;49.044;8.686;2023-10-19T05:28:58;97730.56;;;23.78;42.08
83424;BME280;73355;49.044;8.686;2023-10-19T05:31:23;97730.03;;;23.80;42.23
83424;BME280;73355;49.044;8.686;2023-10-19T05:33:48;97727.25;;;23.80;42.11
83424;BME280;73355;49.044;8.686;2023-10-19T05:36:13;97721.69;;;23.80;42.16
83424;BME280;73355;49.044;8.686;2023-10-19T05:38:39;97724.59;;;23.74;42.17
83424;BME280;73355;49.044;8.686;2023-10-19T05:41:05;97721.25;;;23.76;42.08
83424;BME280;73355;49.044;8.686;2023-10-19T05:43:30;97728.31;;;23.77;42.25
83424;BME280;73355;49.044;8.686;2023-10-19T05:45:55;97723.50;;;23.77;42.10
83424;BME280;73355;49.044;8.686;2023-10-19T05:48:22;97727.03;;;23.78;42.17
83424;BME280;73355;49.044;8.686;2023-10-19T05:50:49;97726.50;;;23.79;42.05
83424;BME280;73355;49.044;8.686;2023-10-19T05:53:14;97723.72;;;23.79;42.01
83424;BME280;73355;49.044;8.686;2023-10-19T05:55:44;97729.28;;;23.79;42.23
83424;BME280;73355;49.044;8.686;2023-10-19T05:58:09;97725.94;;;23.81;42.18
83424;BME280;73355;49.044;8.686;2023-10-19T06:00:34;97721.13;;;23.81;41.89
83424;BME280;73355;49.044;8.686;2023-10-19T06:02:59;97725.22;;;23.80;42.11
83424;BME280;73355;49.044;8.686;2023-10-19T06:05:25;97725.22;;;23.80;42.21
83424;BME280;73355;49.044;8.686;2023-10-19T06:07:50;97734.28;;;23.81;41.95
83424;BME280;73355;49.044;8.686;2023-10-19T06:10:18;97722.44;;;23.80;42.10
83424;BME280;73355;49.044;8.686;2023-10-19T06:12:45;97723.16;;;23.81;42.06
83424;BME280;73355;49.044;8.686;2023-10-19T06:15:11;97726.69;;;23.81;41.96
83424;BME280;73355;49.044;8.686;2023-10-19T06:17:38;97720.38;;;23.81;42.09
83424;BME280;73355;49.044;8.686;2023-10-19T06:20:06;97724.47;;;23.80;41.92
83424;BME280;73355;49.044;8.686;2023-10-19T06:22:33;97723.16;;;23.81;42.18
83424;BME280;73355;49.044;8.686;2023-10-19T06:24:58;97723.72;;;23.79;41.88
83424;BME280;73355;49.044;8.686;2023-10-19T06:27:24;97720.94;;;23.79;41.95
83424;BME280;73355;49.044;8.686;2023-10-19T06:29:49;97722.97;;;23.79;42.46
83424;BME280;73355;49.044;8.686;2023-10-19T06:32:14;97725.75;;;23.79;41.81
83424;BME280;73355;49.044;8.686;2023-10-19T06:34:40;97725.75;;;23.79;41.92
83424;BME280;73355;49.044;8.686;2023-10-19T06:37:05;97723.72;;;23.79;42.20
83424;BME280;73355;49.044;8.686;2023-10-19T06:39:33;97721.81;;;23.74;42.46
83424;BME280;73355;49.044;8.686;2023-10-19T06:41:59;97713.66;;;23.76;42.38
83424;BME280;73355;49.044;8.686;2023-10-19T06:44:24;97721.47;;;23.78;42.27
83424;BME280;73355;49.044;8.686;2023-10-19T06:46:49;97713.88;;;23.78;42.54
83424;BME280;73355;49.044;8.686;2023-10-19T06:49:14;97720.19;;;23.79;42.82
83424;BME280;73355;49.044;8.686;2023-10-19T06:51:40;97716.88;;;23.80;42.73
83424;BME280;73355;49.044;8.686;2023-10-19T06:54:06;97713.53;;;23.82;43.12
83424;BME280;73355;49.044;8.686;2023-10-19T06:56:33;97720.59;;;23.83;43.35
83424;BME280;73355;49.044;8.686;2023-10-19T06:59:02;97703.38;;;23.84;43.46
83424;BME280;73355;49.044;8.686;2023-10-19T07:01:29;97710.00;;;23.81;43.83
83424;BME280;73355;49.044;8.686;2023-10-19T07:03:56;97709.97;;;23.74;43.86
83424;BME280;73355;49.044;8.686;2023-10-19T07:06:21;97722.28;;;23.65;44.16
83424;BME280;73355;49.044;8.686;2023-10-19T07:08:47;97710.91;;;23.56;44.44
83424;BME280;73355;49.044;8.686;2023-10-19T07:11:12;97700.97;;;23.47;44.64
83424;BME280;73355;49.044;8.686;2023-10-19T07:13:38;97714.97;;;23.41;44.77
83424;BME280;73355;49.044;8.686;2023-10-19T07:16:05;97709.34;;;23.34;45.11
83424;BME280;73355;49.044;8.686;2023-10-19T07:18:30;97702.44;;;23.27;45.18
83424;BME280;73355;49.044;8.686;2023-10-19T07:20:56;97707.88;;;23.20;45.39
83424;BME280;73355;49.044;8.686;2023-10-19T07:23:28;97715.16;;;23.10;45.95
83424;BME280;73355;49.044;8.686;2023-10-19T07:25:54;97711.44;;;23.07;45.98
83424;BME280;73355;49.044;8.686;2023-10-19T07:28:21;97725.13;;;23.05;46.14
83424;BME280;73355;49.044;8.686;2023-10-19T07:30:47;97719.16;;;23.01;46.29
83424;BME280;73355;49.044;8.686;2023-10-19T07:33:13;97722.75;;;22.96;46.49
83424;BME280;73355;49.044;8.686;2023-10-19T07:35:43;97733.03;;;22.88;46.64
83424;BME280;73355;49.044;8.686;2023-10-19T07:38:09;97721.31;;;22.82;46.80
83424;BME280;73355;49.044;8.686;2023-10-19T07:40:35;97720.66;;;22.76;47.03
83424;BME280;73355;49.044;8.686;2023-10-19T07:43:00;97720.53;;;22.68;46.99
83424;BME280;73355;49.044;8.686;2023-10-19T07:45:26;97716.38;;;22.61;47.35
83424;BME280;73355;49.044;8.686;2023-10-19T07:47:51;97709.22;;;22.53;47.57
83424;BME280;73355;49.044;8.686;2023-10-19T07:50:16;97708.25;;;22.50;47.59
83424;BME280;73355;49.044;8.686;2023-10-19T07:52:46;97715.22;;;22.44;47.87
83424;BME280;73355;49.044;8.686;2023-10-19T07:55:16;97718.50;;;22.42;48.08
83424;BME280;73355;49.044;8.686;2023-10-19T07:57:42;97723.09;;;22.40;48.27
83424;BME280;73355;49.044;8.686;2023-10-19T08:00:08;97705.28;;;22.35;48.11
83424;BME280;73355;49.044;8.686;2023-10-19T08:02:34;97701.56;;;22.33;48.33
83424;BME280;73355;49.044;8.686;2023-10-19T08:05:07;97703.03;;;22.34;48.38
83424;BME280;73355;49.044;8.686;2023-10-19T08:07:33;97713.91;;;22.45;48.28
83424;BME280;73355;49.044;8.686;2023-10-19T08:10:02;97710.63;;;22.59;47.98
83424;BME280;73355;49.044;8.686;2023-10-19T08:12:30;97692.72;;;22.74;47.96
83424;BME280;73355;49.044;8.686;2023-10-19T08:14:56;97689.91;;;22.87;47.50
83424;BME280;73355;49.044;8.686;2023-10-19T08:17:22;97682.44;;;22.95;47.55
83424;BME280;73355;49.044;8.686;2023-10-19T08:19:47;97686.44;;;23.07;47.46
83424;BME280;73355;49.044;8.686;2023-10-19T08:22:12;97687.81;;;23.14;47.08
83424;BME280;73355;49.044;8.686;2023-10-19T08:24:40;97676.47;;;23.25;46.73
83424;BME280;73355;49.044;8.686;2023-10-19T08:27:11;97681.78;;;23.36;46.60
83424;BME280;73355;49.044;8.686;2023-10-19T08:29:37;97686.38;;;23.46;46.32
83424;BME280;73355;49.044;8.686;2023-10-19T08:32:02;97697.53;;;23.54;46.22
83424;BME280;73355;49.044;8.686;2023-10-19T08:34:27;97682.44;;;23.63;46.04
83424;BME280;73355;49.044;8.686;2023-10-19T08:36:55;97669.31;;;23.63;46.02
83424;BME280;73355;49.044;8.686;2023-10-19T08:39:20;97662.53;;;23.72;45.89
83424;BME280;73355;49.044;8.686;2023-10-19T08:41:45;97671.47;;;23.78;45.81
83424;BME280;73355;49.044;8.686;2023-10-19T08:44:13;97675.75;;;23.79;45.78
83424;BME280;73355;49.044;8.686;2023-10-19T08:46:43;97670.78;;;23.85;45.58
83424;BME280;73355;49.044;8.686;2023-10-19T08:49:12;97663.59;;;23.89;45.47
83424;BME280;73355;49.044;8.686;2023-10-19T08:51:38;97656.94;;;23.93;45.11
83424;BME280;73355;49.044;8.686;2023-10-19T08:54:05;97667.72;;;23.96;45.13
83424;BME280;73355;49.044;8.686;2023-10-19T08:56:31;97669.22;;;23.97;45.55
83424;BME280;73355;49.044;8.686;2023-10-19T08:58:58;97661.03;;;23.92;46.06
83424;BME280;73355;49.044;8.686;2023-10-19T09:01:23;97657.66;;;23.85;45.85
83424;BME280;73355;49.044;8.686;2023-10-19T09:03:50;97656.69;;;23.83;46.24
83424;BME280;73355;49.044;8.686;2023-10-19T09:06:15;97656.47;;;23.81;46.70
83424;BME280;73355;49.044;8.686;2023-10-19T09:08:41;97656.47;;;23.81;47.08
83424;BME280;73355;49.044;8.686;2023-10-19T09:11:06;97640.91;;;23.78;47.18
83424;BME280;73355;49.044;8.686;2023-10-19T09:16:09;97650.34;;;23.75;47.59
83424;BME280;73355;49.044;8.686;2023-10-19T09:18:35;97649.03;;;23.76;47.77
83424;BME280;73355;49.044;8.686;2023-10-19T09:21:00;97646.47;;;23.78;47.82
83424;BME280;73355;49.044;8.686;2023-10-19T09:23:32;97649.03;;;23.76;48.28
83424;BME280;73355;49.044;8.686;2023-10-19T09:26:00;97643.69;;;23.78;48.08
83424;BME280;73355;49.044;8.686;2023-10-19T09:28:28;97641.88;;;23.80;48.29
83424;BME280;73355;49.044;8.686;2023-10-19T09:30:53;97641.31;;;23.82;48.33
83424;BME280;73355;49.044;8.686;2023-10-19T09:33:18;97640.75;;;23.83;48.55
83424;BME280;73355;49.044;8.686;2023-10-19T09:35:48;97632.78;;;23.80;48.60
83424;BME280;73355;49.044;8.686;2023-10-19T09:38:17;97625.38;;;23.82;48.63
83424;BME280;73355;49.044;8.686;2023-10-19T09:40:50;97625.59;;;23.84;48.76
83424;BME280;73355;49.044;8.686;2023-10-19T09:43:22;97615.41;;;23.87;48.81
83424;BME280;73355;49.044;8.686;2023-10-19T09:45:51;97623.94;;;23.89;48.90
83424;BME280;73355;49.044;8.686;2023-10-19T09:48:19;97618.59;;;23.91;48.96
83424;BME280;73355;49.044;8.686;2023-10-19T09:50:52;97612.69;;;23.95;49.21
83424;BME280;73355;49.044;8.686;2023-10-19T09:53:22;97607.34;;;23.97;49.37
83424;BME280;73355;49.044;8.686;2023-10-19T09:55:50;97601.41;;;24.00;49.22
83424;BME280;73355;49.044;8.686;2023-10-19T09:58:17;97603.84;;;24.04;49.07
83424;BME280;73355;49.044;8.686;2023-10-19T10:00:45;97609.81;;;24.08;49.11
83424;BME280;73355;49.044;8.686;2023-10-19T10:06:07;97613.53;;;24.10;48.97
83424;BME280;73355;49.044;8.686;2023-10-19T10:08:35;97612.25;;;24.11;49.21
83424;BME280;73355;49.044;8.686;2023-10-19T10:11:25;97604.66;;;24.12;49.18
83424;BME280;73355;49.044;8.686;2023-10-19T10:13:56;97608.91;;;24.13;49.04
83424;BME280;73355;49.044;8.686;2023-10-19T10:16:28;97610.41;;;24.14;48.82
83424;BME280;73355;49.044;8.686;2023-10-19T10:19:00;97613.38;;;24.16;49.02
83424;BME280;73355;49.044;8.686;2023-10-19T10:21:26;97619.69;;;24.16;49.00
83424;BME280;73355;49.044;8.686;2023-10-19T10:23:54;97618.41;;;24.17;49.16
83424;BME280;73355;49.044;8.686;2023-10-19T10:26:22;97607.28;;;24.17;49.04
83424;BME280;73355;49.044;8.686;2023-10-19T10:31:57;97604.09;;;24.13;49.09
83424;BME280;73355;49.044;8.686;2023-10-19T10:37:11;97601.47;;;24.08;49.42
83424;BME280;73355;49.044;8.686;2023-10-19T10:39:39;97614.41;;;24.05;49.35
83424;BME280;73355;49.044;8.686;2023-10-19T10:42:07;97607.19;;;24.02;49.42
83424;BME280;73355;49.044;8.686;2023-10-19T10:44:42;97605.69;;;24.01;49.52
83424;BME280;73355;49.044;8.686;2023-10-19T10:47:10;97613.06;;;23.99;49.64
83424;BME280;73355;49.044;8.686;2023-10-19T10:49:48;97617.72;;;23.96;49.82
83424;BME280;73355;49.044;8.686;2023-10-19T10:52:34;97613.22;;;23.93;50.04
83424;BME280;73355;49.044;8.686;2023-10-19T10:55:11;97621.91;;;23.89;50.04
83424;BME280;73355;49.044;8.686;2023-10-19T10:57:36;97620.97;;;23.87;49.84
83424;BME280;73355;49.044;8.686;2023-10-19T11:00:10;97627.09;;;23.85;49.93
83424;BME280;73355;49.044;8.686;2023-10-19T11:02:41;97621.53;;;23.85;49.94
83424;BME280;73355;49.044;8.686;2023-10-19T11:05:12;97625.59;;;23.84;50.01
83424;BME280;73355;49.044;8.686;2023-10-19T11:07:38;97623.34;;;23.83;50.58
83424;BME280;73355;49.044;8.686;2023-10-19T11:10:04;97624.31;;;23.85;50.31
83424;BME280;73355;49.044;8.686;2023-10-19T11:12:29;97623.75;;;23.87;50.32
83424;BME280;73355;49.044;8.686;2023-10-19T11:14:56;97612.63;;;23.87;50.61
83424;BME280;73355;49.044;8.686;2023-10-19T11:17:24;97613.94;;;23.86;50.84
83424;BME280;73355;49.044;8.686;2023-10-19T11:19:56;97606.13;;;23.84;50.70
83424;BME280;73355;49.044;8.686;2023-10-19T11:22:22;97607.56;;;23.78;50.98
83424;BME280;73355;49.044;8.686;2023-10-19T11:24:50;97613.13;;;23.78;51.07
83424;BME280;73355;49.044;8.686;2023-10-19T11:27:28;97589.06;;;23.80;51.11
83424;BME280;73355;49.044;8.686;2023-10-19T11:29:57;97591.09;;;23.80;51.26
83424;BME280;73355;49.044;8.686;2023-10-19T11:32:23;97579.78;;;23.78;51.46
83424;BME280;73355;49.044;8.686;2023-10-19T11:34:56;97574.22;;;23.78;51.38
83424;BME280;73355;49.044;8.686;2023-10-19T11:37:22;97582.56;;;23.78;51.74
83424;BME280;73355;49.044;8.686;2023-10-19T11:39:47;97572.56;;;23.75;51.95
83424;BME280;73355;49.044;8.686;2023-10-19T11:42:14;97552.91;;;23.73;51.97
83424;BME280;73355;49.044;8.686;2023-10-19T11:44:40;97548.84;;;23.74;51.95
83424;BME280;73355;49.044;8.686;2023-10-19T11:47:05;97551.06;;;23.75;52.13
83424;BME280;73355;49.044;8.686;2023-10-19T11:49:30;97543.06;;;23.72;52.24
83424;BME280;73355;49.044;8.686;2023-10-19T11:51:55;97536.22;;;23.73;52.33
83424;BME280;73355;49.044;8.686;2023-10-19T11:54:22;97515.09;;;23.70;52.32
83424;BME280;73355;49.044;8.686;2023-10-19T11:56:47;97504.88;;;23.65;52.35
83424;BME280;73355;49.044;8.686;2023-10-19T11:59:14;97519.13;;;23.61;52.57
83424;BME280;73355;49.044;8.686;2023-10-19T12:01:40;97527.81;;;23.58;52.70
83424;BME280;73355;49.044;8.686;2023-10-19T12:04:05;97525.91;;;23.53;52.53
83424;BME280;73355;49.044;8.686;2023-10-19T12:06:30;97521.44;;;23.50;53.01
83424;BME280;73355;49.044;8.686;2023-10-19T12:08:56;97514.50;;;23.43;53.00
83424;BME280;73355;49.044;8.686;2023-10-19T12:11:24;97526.91;;;23.42;53.05
83424;BME280;73355;49.044;8.686;2023-10-19T12:13:49;97533.03;;;23.40;53.08
83424;BME280;73355;49.044;8.686;2023-10-19T12:16:15;97524.47;;;23.38;52.67
83424;BME280;73355;49.044;8.686;2023-10-19T12:18:41;97525.75;;;23.37;52.66
83424;BME280;73355;49.044;8.686;2023-10-19T12:21:10;97531.84;;;23.36;52.47
83424;BME280;73355;49.044;8.686;2023-10-19T12:23:39;97538.16;;;23.36;52.35
83424;BME280;73355;49.044;8.686;2023-10-19T12:26:05;97532.81;;;23.38;52.35
83424;BME280;73355;49.044;8.686;2023-10-19T12:28:36;97541.53;;;23.42;52.85
83424;BME280;73355;49.044;8.686;2023-10-19T12:31:03;97541.22;;;23.46;52.96
83424;BME280;73355;49.044;8.686;2023-10-19T12:33:30;97541.41;;;23.48;52.82
83424;BME280;73355;49.044;8.686;2023-10-19T12:35:55;97539.06;;;23.52;52.74
83424;BME280;73355;49.044;8.686;2023-10-19T12:38:22;97540.53;;;23.53;52.72
83424;BME280;73355;49.044;8.686;2023-10-19T12:40:49;97535.72;;;23.54;52.90
83424;BME280;73355;49.044;8.686;2023-10-19T12:43:16;97540.72;;;23.55;53.09
83424;BME280;73355;49.044;8.686;2023-10-19T12:45:47;97542.22;;;23.56;53.11
83424;BME280;73355;49.044;8.686;2023-10-19T12:48:16;97534.81;;;23.59;53.25
83424;BME280;73355;49.044;8.686;2023-10-19T12:50:42;97538.56;;;23.61;53.21
83424;BME280;73355;49.044;8.686;2023-10-19T12:53:08;97536.72;;;23.64;53.33
83424;BME280;73355;49.044;8.686;2023-10-19T12:55:33;97540.22;;;23.64;53.28
83424;BME280;73355;49.044;8.686;2023-10-19T12:57:59;97540.06;;;23.62;53.42
83424;BME280;73355;49.044;8.686;2023-10-19T13:00:32;97546.34;;;23.63;53.20
83424;BME280;73355;49.044;8.686;2023-10-19T13:03:08;97542.09;;;23.62;53.52
83424;BME280;73355;49.044;8.686;2023-10-19T13:05:35;97537.06;;;23.60;53.17
83424;BME280;73355;49.044;8.686;2023-10-19T13:08:01;97527.25;;;23.59;53.08
83424;BME280;73355;49.044;8.686;2023-10-19T13:10:30;97525.75;;;23.58;53.13
83424;BME280;73355;49.044;8.686;2023-10-19T13:13:04;97525.56;;;23.56;53.11
83424;BME280;73355;49.044;8.686;2023-10-19T13:15:31;97522.59;;;23.54;53.14